Time;durP1;ratioP1;P1;durP2;ratioP2;P2;SDS_P1;SDS_P2;PMS_P1;PMS_P2;Temp;Humidity;BMP_temperature;BMP_pressure;BME280_temperature;BME280_humidity;BME280_pressure;Samples;Min_cycle;Max_cycle;Signal;HPM_P1;HPM_P2
2023/03/18 00:02:04;;;;;;;9.45;5.07;;;;;;;;;;6023715;23;20029;-81
2023/03/18 00:04:31;;;;;;;9.30;5.32;;;;;;;;;;6025326;23;20038;-82
2023/03/18 00:06:58;;;;;;;9.60;5.15;;;;;;;;;;6022824;23;20027;-83
2023/03/18 00:09:25;;;;;;;11.32;6.00;;;;;;;;;;6000483;23;20030;-81
2023/03/18 00:11:52;;;;;;;12.70;7.13;;;;;;;;;;6022597;23;20341;-82
2023/03/18 00:14:19;;;;;;;14.27;7.95;;;;;;;;;;6034201;23;20029;-82
2023/03/18 00:16:46;;;;;;;11.60;6.07;;;;;;;;;;6004741;23;20030;-82
2023/03/18 00:19:13;;;;;;;11.55;5.97;;;;;;;;;;6022466;23;20023;-82
2023/03/18 00:21:39;;;;;;;12.07;6.13;;;;;;;;;;6046527;23;20112;-82
2023/03/18 00:24:06;;;;;;;10.50;5.80;;;;;;;;;;6047086;23;20034;-83
2023/03/18 00:26:33;;;;;;;9.65;5.47;;;;;;;;;;6023671;23;20050;-82
2023/03/18 00:29:00;;;;;;;12.25;6.03;;;;;;;;;;6023736;23;20023;-86
2023/03/18 00:31:28;;;;;;;8.50;5.93;;;;;;;;;;6023840;23;20049;-84
2023/03/18 00:33:55;;;;;;;8.40;5.60;;;;;;;;;;6022661;23;20413;-83
2023/03/18 00:36:24;;;;;;;11.88;6.05;;;;;;;;;;5997832;23;20022;-85
2023/03/18 00:38:56;;;;;;;11.93;5.97;;;;;;;;;;5998667;23;20330;-84
2023/03/18 00:41:25;;;;;;;10.85;5.20;;;;;;;;;;6022832;23;20027;-84
2023/03/18 00:43:53;;;;;;;7.75;4.55;;;;;;;;;;6021218;23;20027;-86
2023/03/18 00:46:28;;;;;;;8.38;4.40;;;;;;;;;;5998452;23;20289;-84
2023/03/18 00:48:58;;;;;;;6.10;4.47;;;;;;;;;;6023071;23;20031;-86
2023/03/18 00:51:27;;;;;;;7.60;4.20;;;;;;;;;;5998874;23;20023;-83
2023/03/18 00:53:55;;;;;;;6.57;4.57;;;;;;;;;;6021952;23;20023;-83
2023/03/18 00:56:24;;;;;;;6.85;4.10;;;;;;;;;;6020940;23;20019;-83
2023/03/18 00:58:52;;;;;;;8.52;4.57;;;;;;;;;;6020593;23;20029;-84
2023/03/18 01:01:20;;;;;;;6.53;4.05;;;;;;;;;;6020005;23;20029;-83
2023/03/18 01:03:48;;;;;;;7.80;4.50;;;;;;;;;;6020047;23;20077;-83
2023/03/18 01:06:21;;;;;;;6.18;4.38;;;;;;;;;;6019906;23;20065;-84
2023/03/18 01:08:48;;;;;;;;;;;;;;;;;;6020937;23;20442;-83
2023/03/18 01:11:15;;;;;;;9.95;4.80;;;;;;;;;;6066688;23;19921;-83
2023/03/18 01:13:42;;;;;;;9.18;5.07;;;;;;;;;;6019753;23;20033;-83
2023/03/18 01:16:09;;;;;;;8.27;4.00;;;;;;;;;;6021115;23;20105;-82
2023/03/18 01:18:37;;;;;;;5.93;3.47;;;;;;;;;;5996200;23;20493;-83
2023/03/18 01:21:03;;;;;;;5.28;3.72;;;;;;;;;;6020483;23;20107;-82
2023/03/18 01:23:30;;;;;;;6.45;2.47;;;;;;;;;;6020975;23;20027;-82
2023/03/18 01:25:58;;;;;;;6.30;4.00;;;;;;;;;;5997544;23;20033;-82
2023/03/18 01:28:26;;;;;;;5.95;2.50;;;;;;;;;;6019443;23;20027;-83
2023/03/18 01:30:54;;;;;;;5.13;2.53;;;;;;;;;;6020667;23;20026;-82
2023/03/18 01:33:21;;;;;;;8.75;3.42;;;;;;;;;;5996973;23;20105;-82
2023/03/18 01:35:55;;;;;;;4.20;2.50;;;;;;;;;;6019540;23;20458;-83
2023/03/18 01:38:23;;;;;;;4.03;3.08;;;;;;;;;;6020476;23;20357;-83
2023/03/18 01:40:49;;;;;;;5.97;3.60;;;;;;;;;;6019797;23;20477;-82
2023/03/18 01:43:19;;;;;;;5.10;3.08;;;;;;;;;;5996341;23;20027;-82
2023/03/18 01:45:58;;;;;;;6.13;2.92;;;;;;;;;;6020170;23;20034;-81
2023/03/18 01:48:28;;;;;;;5.00;2.28;;;;;;;;;;6020136;23;20031;-83
2023/03/18 01:50:58;;;;;;;3.70;2.17;;;;;;;;;;6019270;23;20106;-82
2023/03/18 01:53:27;;;;;;;2.83;1.60;;;;;;;;;;6019980;23;20027;-82
2023/03/18 01:55:56;;;;;;;4.43;1.85;;;;;;;;;;6019876;23;20023;-81
2023/03/18 01:58:35;;;;;;;4.50;2.03;;;;;;;;;;5997161;23;20033;-83
2023/03/18 02:01:24;;;;;;;2.63;1.63;;;;;;;;;;6019727;23;20022;-82
2023/03/18 02:03:52;;;;;;;2.97;1.85;;;;;;;;;;6046797;23;20558;-83
2023/03/18 02:06:19;;;;;;;3.97;1.60;;;;;;;;;;6018571;23;20042;-81
2023/03/18 02:08:46;;;;;;;4.90;2.00;;;;;;;;;;6019046;23;20027;-84
2023/03/18 02:11:13;;;;;;;6.10;2.00;;;;;;;;;;6018750;23;20057;-81
2023/03/18 02:13:42;;;;;;;3.47;1.60;;;;;;;;;;5997085;23;20026;-82
2023/03/18 02:16:14;;;;;;;4.63;2.00;;;;;;;;;;6022105;23;20090;-82
2023/03/18 02:18:44;;;;;;;3.97;1.85;;;;;;;;;;6022191;23;20031;-82
2023/03/18 02:21:33;;;;;;;3.20;2.10;;;;;;;;;;6022030;23;20022;-82
2023/03/18 02:24:10;;;;;;;4.18;2.45;;;;;;;;;;6045503;23;20030;-83
2023/03/18 02:27:00;;;;;;;4.00;2.28;;;;;;;;;;6068947;23;20030;-83
2023/03/18 02:29:30;;;;;;;4.70;2.28;;;;;;;;;;6023158;23;20027;-82
2023/03/18 02:31:57;;;;;;;3.67;1.90;;;;;;;;;;6021411;23;20031;-83
2023/03/18 02:34:24;;;;;;;4.50;2.13;;;;;;;;;;5996908;23;20053;-80
2023/03/18 02:36:51;;;;;;;4.18;1.98;;;;;;;;;;5998219;23;20023;-82
2023/03/18 02:39:18;;;;;;;2.58;1.50;;;;;;;;;;6020821;23;20033;-83
2023/03/18 02:41:44;;;;;;;2.97;1.75;;;;;;;;;;5996515;23;20043;-83
2023/03/18 02:44:11;;;;;;;3.45;1.83;;;;;;;;;;5996333;23;20382;-83
2023/03/18 02:47:00;;;;;;;6.53;1.70;;;;;;;;;;6020116;23;20054;-81
2023/03/18 02:49:27;;;;;;;3.35;1.40;;;;;;;;;;6018980;23;20038;-83
2023/03/18 02:51:55;;;;;;;3.20;1.70;;;;;;;;;;5995486;23;20023;-83
2023/03/18 02:54:25;;;;;;;2.38;1.70;;;;;;;;;;5995459;23;20029;-83
2023/03/18 02:56:52;;;;;;;5.65;1.90;;;;;;;;;;6019168;23;20018;-82
2023/03/18 02:59:19;;;;;;;3.80;1.90;;;;;;;;;;6018767;23;20050;-83
2023/03/18 03:01:48;;;;;;;2.83;1.95;;;;;;;;;;6018467;23;20054;-83
2023/03/18 03:04:15;;;;;;;4.10;1.83;;;;;;;;;;6018777;23;20023;-83
2023/03/18 03:06:42;;;;;;;3.67;2.10;;;;;;;;;;6018458;23;20019;-83
2023/03/18 03:09:12;;;;;;;4.82;2.50;;;;;;;;;;6018628;23;20027;-83
2023/03/18 03:11:39;;;;;;;4.10;2.22;;;;;;;;;;6018873;23;20054;-83
2023/03/18 03:14:08;;;;;;;7.22;2.30;;;;;;;;;;6018993;23;20034;-83
2023/03/18 03:17:10;;;;;;;3.92;1.98;;;;;;;;;;6024484;23;20019;-83
2023/03/18 03:19:37;;;;;;;5.43;2.45;;;;;;;;;;6048909;23;20027;-83
2023/03/18 03:22:04;;;;;;;4.72;3.13;;;;;;;;;;6044548;23;20027;-81
2023/03/18 03:24:30;;;;;;;6.20;2.83;;;;;;;;;;6043690;23;20019;-83
2023/03/18 03:26:57;;;;;;;3.15;2.72;;;;;;;;;;6043296;23;20027;-83
2023/03/18 03:29:24;;;;;;;3.00;2.25;;;;;;;;;;6020220;23;20030;-84
2023/03/18 03:31:50;;;;;;;5.82;3.03;;;;;;;;;;6019455;23;20409;-84
2023/03/18 03:34:18;;;;;;;4.18;2.33;;;;;;;;;;6019258;23;20030;-83
2023/03/18 03:36:45;;;;;;;3.70;2.30;;;;;;;;;;6019162;23;20071;-83
2023/03/18 03:39:11;;;;;;;4.63;2.47;;;;;;;;;;6018613;23;20027;-83
2023/03/18 03:41:38;;;;;;;3.63;2.40;;;;;;;;;;6024289;23;20023;-82
2023/03/18 03:44:05;;;;;;;4.43;2.10;;;;;;;;;;5996167;23;20322;-82
2023/03/18 03:46:31;;;;;;;4.10;2.45;;;;;;;;;;6036767;23;20011;-84
2023/03/18 03:48:58;;;;;;;5.20;2.15;;;;;;;;;;6020977;23;20059;-85
2023/03/18 03:51:25;;;;;;;2.45;1.85;;;;;;;;;;6047669;23;20023;-83
2023/03/18 03:53:52;;;;;;;4.28;2.65;;;;;;;;;;6047016;23;20026;-81
2023/03/18 03:56:19;;;;;;;5.07;2.30;;;;;;;;;;5994604;23;20015;-84
2023/03/18 03:58:46;;;;;;;4.53;2.20;;;;;;;;;;5993239;23;20022;-83
2023/03/18 04:01:13;;;;;;;4.50;2.53;;;;;;;;;;5992949;23;20023;-83
2023/03/18 04:03:40;;;;;;;3.25;2.40;;;;;;;;;;6016427;23;20034;-82
2023/03/18 04:06:06;;;;;;;3.72;2.17;;;;;;;;;;6016825;23;20461;-81
2023/03/18 04:08:33;;;;;;;2.97;1.98;;;;;;;;;;5994405;23;20097;-84
2023/03/18 04:11:03;;;;;;;3.97;2.47;;;;;;;;;;6018351;23;20359;-84
2023/03/18 04:13:30;;;;;;;3.90;1.95;;;;;;;;;;5996198;23;20026;-82
2023/03/18 04:15:56;;;;;;;2.72;1.90;;;;;;;;;;5995033;23;20023;-83
2023/03/18 04:18:24;;;;;;;2.95;2.10;;;;;;;;;;6065774;23;20023;-83
2023/03/18 04:20:51;;;;;;;2.83;1.80;;;;;;;;;;6018974;23;20023;-83
2023/03/18 04:23:18;;;;;;;4.30;1.77;;;;;;;;;;6043698;23;20023;-83
2023/03/18 04:25:45;;;;;;;3.20;1.80;;;;;;;;;;6000600;23;20026;-83
2023/03/18 04:28:13;;;;;;;4.43;1.90;;;;;;;;;;6023882;23;20487;-82
2023/03/18 04:30:39;;;;;;;3.50;1.95;;;;;;;;;;6026101;23;20027;-84
2023/03/18 04:33:06;;;;;;;3.58;1.90;;;;;;;;;;6001461;23;20023;-83
2023/03/18 04:35:33;;;;;;;5.28;1.50;;;;;;;;;;5999426;23;20027;-83
2023/03/18 04:38:00;;;;;;;4.07;1.70;;;;;;;;;;6020504;23;20102;-81
2023/03/18 04:40:27;;;;;;;3.10;1.65;;;;;;;;;;5997565;23;20392;-81
2023/03/18 04:42:54;;;;;;;4.28;1.83;;;;;;;;;;5998502;23;20026;-81
2023/03/18 04:45:21;;;;;;;3.47;1.70;;;;;;;;;;6048914;23;20079;-81
2023/03/18 04:47:48;;;;;;;2.10;1.70;;;;;;;;;;6010209;23;20078;-80
2023/03/18 04:50:15;;;;;;;2.97;1.90;;;;;;;;;;6038120;23;20035;-79
2023/03/18 04:52:43;;;;;;;2.70;1.80;;;;;;;;;;6039842;23;20033;-81
2023/03/18 04:55:11;;;;;;;3.80;1.80;;;;;;;;;;6016944;23;20027;-81
2023/03/18 04:57:38;;;;;;;4.55;2.20;;;;;;;;;;6034036;23;20397;-81
2023/03/18 05:00:06;;;;;;;2.75;1.80;;;;;;;;;;6006228;23;20023;-80
2023/03/18 05:02:38;;;;;;;2.25;1.85;;;;;;;;;;6034576;23;20597;-83
2023/03/18 05:05:05;;;;;;;4.70;1.90;;;;;;;;;;6039763;23;20061;-85
2023/03/18 05:07:32;;;;;;;5.13;1.98;;;;;;;;;;6039591;23;20019;-83
2023/03/18 05:09:59;;;;;;;2.78;1.95;;;;;;;;;;6022122;23;20023;-82
2023/03/18 05:12:26;;;;;;;3.53;1.90;;;;;;;;;;5993994;23;20488;-82
2023/03/18 05:14:52;;;;;;;3.15;2.15;;;;;;;;;;5994163;23;20023;-82
2023/03/18 05:17:19;;;;;;;3.10;2.25;;;;;;;;;;5994040;23;20027;-81
2023/03/18 05:19:47;;;;;;;5.03;2.72;;;;;;;;;;5993572;23;20033;-82
2023/03/18 05:22:16;;;;;;;6.40;2.67;;;;;;;;;;6017881;23;20027;-82
2023/03/18 05:24:44;;;;;;;3.20;2.10;;;;;;;;;;6017893;23;20491;-81
2023/03/18 05:27:16;;;;;;;4.07;2.10;;;;;;;;;;5994858;23;20449;-81
2023/03/18 05:29:44;;;;;;;5.45;2.13;;;;;;;;;;6020846;23;20022;-84
2023/03/18 05:32:11;;;;;;;8.68;2.88;;;;;;;;;;6023660;23;20353;-84
2023/03/18 05:34:38;;;;;;;6.78;2.15;;;;;;;;;;6001060;23;20095;-84
2023/03/18 05:37:10;;;;;;;3.60;2.05;;;;;;;;;;6021376;23;20106;-83
2023/03/18 05:39:37;;;;;;;4.25;2.00;;;;;;;;;;6018492;23;20022;-84
2023/03/18 05:42:05;;;;;;;3.08;2.30;;;;;;;;;;5994925;23;20022;-83
2023/03/18 05:44:32;;;;;;;4.05;2.25;;;;;;;;;;6018375;23;20027;-81
2023/03/18 05:46:59;;;;;;;4.05;2.60;;;;;;;;;;6017879;23;20022;-82
2023/03/18 05:49:26;;;;;;;3.17;2.13;;;;;;;;;;5994928;23;20026;-81
2023/03/18 05:51:53;;;;;;;3.22;2.08;;;;;;;;;;5993906;23;20042;-81
2023/03/18 05:54:20;;;;;;;4.40;2.40;;;;;;;;;;5995026;23;20086;-81
2023/03/18 05:56:51;;;;;;;5.40;2.97;;;;;;;;;;6018049;23;20022;-81
2023/03/18 05:59:18;;;;;;;4.00;2.00;;;;;;;;;;6042160;23;20030;-83
2023/03/18 06:01:45;;;;;;;4.35;2.08;;;;;;;;;;6017555;23;20746;-83
2023/03/18 06:04:12;;;;;;;4.38;2.25;;;;;;;;;;6018437;23;20138;-84
2023/03/18 06:06:39;;;;;;;3.33;2.17;;;;;;;;;;6018916;23;20022;-84
2023/03/18 06:09:07;;;;;;;5.18;2.50;;;;;;;;;;6019492;23;20032;-83
2023/03/18 06:11:34;;;;;;;3.83;2.15;;;;;;;;;;6018520;23;20026;-80
2023/03/18 06:14:02;;;;;;;3.50;2.00;;;;;;;;;;6018634;23;20027;-79
2023/03/18 06:16:29;;;;;;;3.33;1.90;;;;;;;;;;6017309;23;20019;-76
2023/03/18 06:18:57;;;;;;;3.25;2.60;;;;;;;;;;6064850;23;20027;-80
2023/03/18 06:21:24;;;;;;;4.75;2.65;;;;;;;;;;6017195;23;20019;-80
2023/03/18 06:23:51;;;;;;;6.28;2.00;;;;;;;;;;6041728;23;20358;-82
2023/03/18 06:26:18;;;;;;;5.47;2.58;;;;;;;;;;5995772;23;20023;-82
2023/03/18 06:28:44;;;;;;;5.13;2.80;;;;;;;;;;6018030;23;20030;-82
2023/03/18 06:31:11;;;;;;;5.75;3.63;;;;;;;;;;6017600;23;20027;-81
2023/03/18 06:33:38;;;;;;;6.15;3.33;;;;;;;;;;6018664;23;20047;-81
2023/03/18 06:36:06;;;;;;;4.75;3.38;;;;;;;;;;5994961;23;20097;-81
2023/03/18 06:38:33;;;;;;;6.57;3.53;;;;;;;;;;6018417;23;20405;-81
2023/03/18 06:41:00;;;;;;;5.18;3.00;;;;;;;;;;6018950;23;20065;-83
2023/03/18 06:43:27;;;;;;;6.45;3.38;;;;;;;;;;6042643;23;20027;-83
2023/03/18 06:45:54;;;;;;;6.95;2.85;;;;;;;;;;6019563;23;20034;-84
2023/03/18 06:48:22;;;;;;;6.60;3.75;;;;;;;;;;6018998;23;20097;-84
2023/03/18 06:50:48;;;;;;;8.95;4.40;;;;;;;;;;6019788;23;20030;-84
2023/03/18 06:53:16;;;;;;;10.38;3.80;;;;;;;;;;5996761;23;20027;-84
2023/03/18 06:55:43;;;;;;;12.80;4.00;;;;;;;;;;6020050;23;20405;-83
2023/03/18 06:58:10;;;;;;;12.70;4.25;;;;;;;;;;6020435;23;20030;-80
2023/03/18 07:00:37;;;;;;;12.07;4.28;;;;;;;;;;5997340;23;20053;-81
2023/03/18 07:03:04;;;;;;;10.15;3.70;;;;;;;;;;6022218;23;20149;-80
2023/03/18 07:05:31;;;;;;;6.97;2.70;;;;;;;;;;6042114;23;20031;-77
2023/03/18 07:07:58;;;;;;;6.45;3.38;;;;;;;;;;5997517;23;20505;-82
2023/03/18 07:10:28;;;;;;;5.85;3.35;;;;;;;;;;6020798;23;20033;-84
2023/03/18 07:12:55;;;;;;;5.18;3.10;;;;;;;;;;6021389;23;20089;-81
2023/03/18 07:15:22;;;;;;;3.45;2.28;;;;;;;;;;6020817;23;20023;-75
2023/03/18 07:17:51;;;;;;;4.00;2.78;;;;;;;;;;6066331;23;20034;-82
2023/03/18 07:20:19;;;;;;;4.97;3.17;;;;;;;;;;6020039;23;20113;-82
2023/03/18 07:22:46;;;;;;;7.20;3.30;;;;;;;;;;6019947;23;20049;-84
2023/03/18 07:25:13;;;;;;;8.20;3.20;;;;;;;;;;6019902;23;20018;-81
2023/03/18 07:27:41;;;;;;;7.97;3.30;;;;;;;;;;5996135;23;20025;-82
2023/03/18 07:30:08;;;;;;;5.50;2.78;;;;;;;;;;6020893;23;20030;-80
2023/03/18 07:32:37;;;;;;;5.88;2.90;;;;;;;;;;6022686;23;20027;-82
2023/03/18 07:35:05;;;;;;;4.47;3.08;;;;;;;;;;6023015;23;20034;-84
2023/03/18 07:37:32;;;;;;;8.07;3.33;;;;;;;;;;6022101;23;20014;-82
2023/03/18 07:39:59;;;;;;;3.85;2.55;;;;;;;;;;6022259;23;20372;-83
2023/03/18 07:42:26;;;;;;;3.67;2.67;;;;;;;;;;6023001;23;20026;-82
2023/03/18 07:44:54;;;;;;;5.55;2.72;;;;;;;;;;6000310;23;20084;-83
2023/03/18 07:47:22;;;;;;;5.28;2.85;;;;;;;;;;6025277;23;20041;-86
2023/03/18 07:49:50;;;;;;;9.52;2.88;;;;;;;;;;5998893;23;20458;-75
2023/03/18 07:52:17;;;;;;;4.65;2.70;;;;;;;;;;6020886;23;20416;-77
2023/03/18 07:54:44;;;;;;;5.90;3.08;;;;;;;;;;6019567;23;20481;-84
2023/03/18 07:57:11;;;;;;;5.40;2.80;;;;;;;;;;5996696;23;20025;-79
2023/03/18 07:59:38;;;;;;;6.13;2.80;;;;;;;;;;6020490;23;20039;-79
2023/03/18 08:02:07;;;;;;;3.75;2.58;;;;;;;;;;6017181;23;20034;-78
2023/03/18 08:04:34;;;;;;;3.88;2.30;;;;;;;;;;6018490;23;20110;-78
2023/03/18 08:07:02;;;;;;;6.97;2.80;;;;;;;;;;6017971;23;20022;-77
2023/03/18 08:09:28;;;;;;;9.02;3.92;;;;;;;;;;6017583;23;20023;-76
2023/03/18 08:11:55;;;;;;;4.50;2.67;;;;;;;;;;6018192;23;20031;-82
2023/03/18 08:14:22;;;;;;;4.97;2.72;;;;;;;;;;5997971;23;20033;-83
2023/03/18 08:16:51;;;;;;;3.97;2.42;;;;;;;;;;6020361;23;20027;-78
2023/03/18 08:19:17;;;;;;;5.95;2.80;;;;;;;;;;6045022;23;20027;-79
2023/03/18 08:21:44;;;;;;;4.70;2.63;;;;;;;;;;6021871;23;20023;-77
2023/03/18 08:24:11;;;;;;;6.57;3.03;;;;;;;;;;5998373;23;20026;-76
2023/03/18 08:26:38;;;;;;;8.25;3.17;;;;;;;;;;6068054;23;20353;-78
2023/03/18 08:29:05;;;;;;;7.10;2.88;;;;;;;;;;6019712;23;20038;-77
2023/03/18 08:31:32;;;;;;;6.60;2.40;;;;;;;;;;6041771;23;20027;-77
2023/03/18 08:34:00;;;;;;;4.95;2.50;;;;;;;;;;6019724;23;20089;-76
2023/03/18 08:36:27;;;;;;;4.32;2.45;;;;;;;;;;6068009;23;20026;-77
2023/03/18 08:38:55;;;;;;;7.38;2.17;;;;;;;;;;6021003;23;20070;-76
2023/03/18 08:41:24;;;;;;;4.00;2.03;;;;;;;;;;5997188;23;20023;-75
2023/03/18 08:43:52;;;;;;;4.25;1.55;;;;;;;;;;6042257;23;20518;-74
2023/03/18 08:46:18;;;;;;;4.28;1.38;;;;;;;;;;6066368;23;20026;-74
2023/03/18 08:48:45;;;;;;;5.35;1.50;;;;;;;;;;6065836;23;20057;-74
2023/03/18 08:51:13;;;;;;;2.03;1.08;;;;;;;;;;6018393;23;20074;-76
2023/03/18 08:53:40;;;;;;;2.97;1.40;;;;;;;;;;6020512;23;20022;-75
2023/03/18 08:56:07;;;;;;;2.20;1.23;;;;;;;;;;5996043;23;20367;-82
2023/03/18 08:58:34;;;;;;;4.45;1.48;;;;;;;;;;6048258;23;20022;-79
2023/03/18 09:01:04;;;;;;;3.80;1.10;;;;;;;;;;6026032;23;20393;-79
2023/03/18 09:03:32;;;;;;;2.20;1.05;;;;;;;;;;6022154;23;20086;-76
2023/03/18 09:05:59;;;;;;;3.58;1.42;;;;;;;;;;6045555;23;20110;-79
2023/03/18 09:08:28;;;;;;;3.50;1.13;;;;;;;;;;6023621;23;20058;-80
2023/03/18 09:10:55;;;;;;;3.25;1.60;;;;;;;;;;6046355;23;20094;-79
2023/03/18 09:13:22;;;;;;;2.83;1.10;;;;;;;;;;6071308;23;20029;-80
2023/03/18 09:15:49;;;;;;;3.50;1.88;;;;;;;;;;6024114;23;20027;-80
2023/03/18 09:18:17;;;;;;;2.67;1.30;;;;;;;;;;6024042;23;20022;-79
2023/03/18 09:20:44;;;;;;;2.38;1.00;;;;;;;;;;6023528;23;20035;-80
2023/03/18 09:23:12;;;;;;;5.57;1.30;;;;;;;;;;6025830;23;20026;-79
2023/03/18 09:25:41;;;;;;;2.17;1.10;;;;;;;;;;6029815;23;20880;-80
2023/03/18 09:28:08;;;;;;;2.53;1.50;;;;;;;;;;6054460;23;20027;-79
2023/03/18 09:30:35;;;;;;;1.83;1.10;;;;;;;;;;6029155;23;20062;-79
2023/03/18 09:33:04;;;;;;;2.53;1.17;;;;;;;;;;6023754;23;20034;-78
2023/03/18 09:35:32;;;;;;;1.52;1.20;;;;;;;;;;6071393;23;20481;-80
2023/03/18 09:38:00;;;;;;;2.63;1.25;;;;;;;;;;6023688;23;20070;-79
2023/03/18 09:40:32;;;;;;;3.40;1.75;;;;;;;;;;6023492;23;20027;-78
2023/03/18 09:43:22;;;;;;;2.10;1.20;;;;;;;;;;6024607;23;20082;-79
2023/03/18 09:46:16;;;;;;;2.55;1.05;;;;;;;;;;6072028;23;20491;-79
2023/03/18 09:48:55;;;;;;;4.00;0.95;;;;;;;;;;6046588;23;20022;-80
2023/03/18 09:51:36;;;;;;;5.70;1.23;;;;;;;;;;6022982;23;20023;-80
2023/03/18 09:54:16;;;;;;;1.85;0.80;;;;;;;;;;6070637;23;20029;-78
2023/03/18 09:56:42;;;;;;;1.67;1.20;;;;;;;;;;6070240;23;20031;-80
2023/03/18 09:59:24;;;;;;;3.58;1.27;;;;;;;;;;6024439;23;20015;-79
2023/03/18 10:01:55;;;;;;;2.10;1.30;;;;;;;;;;6023809;23;20027;-80
2023/03/18 10:04:37;;;;;;;2.95;1.10;;;;;;;;;;6047231;23;20488;-80
2023/03/18 10:07:12;;;;;;;2.30;1.10;;;;;;;;;;6025387;23;20339;-79
2023/03/18 10:09:43;;;;;;;2.53;1.08;;;;;;;;;;6046452;23;20026;-79
2023/03/18 10:12:38;;;;;;;3.45;1.27;;;;;;;;;;6024306;23;20034;-77
2023/03/18 10:15:23;;;;;;;2.90;1.10;;;;;;;;;;6064906;23;20026;-76
2023/03/18 10:18:03;;;;;;;3.63;1.17;;;;;;;;;;6019451;23;20023;-76
2023/03/18 10:20:36;;;;;;;2.78;0.80;;;;;;;;;;6041715;23;20046;-78
2023/03/18 10:23:29;;;;;;;3.38;1.13;;;;;;;;;;6041804;23;20029;-77
2023/03/18 10:25:58;;;;;;;3.03;1.27;;;;;;;;;;6044714;23;20030;-74
2023/03/18 10:28:35;;;;;;;2.83;1.35;;;;;;;;;;6031341;23;20030;-76
2023/03/18 10:31:42;;;;;;;1.75;0.90;;;;;;;;;;6039446;23;20078;-76
2023/03/18 10:34:15;;;;;;;3.35;1.23;;;;;;;;;;5930797;24;20024;-75
2023/03/18 10:36:48;;;;;;;4.63;1.40;;;;;;;;;;5986338;23;20027;-75
2023/03/18 10:39:23;;;;;;;2.75;0.98;;;;;;;;;;6040035;23;20022;-76
2023/03/18 10:41:52;;;;;;;2.92;1.42;;;;;;;;;;6018728;23;20026;-78
2023/03/18 10:44:32;;;;;;;4.82;1.45;;;;;;;;;;6021266;23;20023;-78
2023/03/18 10:47:08;;;;;;;2.00;0.98;;;;;;;;;;6030638;23;20026;-79
2023/03/18 10:49:37;;;;;;;3.42;1.55;;;;;;;;;;6033989;23;20026;-80
2023/03/18 10:52:29;;;;;;;3.38;1.40;;;;;;;;;;6022790;23;20098;-80
2023/03/18 10:54:57;;;;;;;2.95;1.20;;;;;;;;;;6058447;23;20054;-79
2023/03/18 10:57:24;;;;;;;3.63;1.38;;;;;;;;;;6032696;23;20019;-79
2023/03/18 10:59:51;;;;;;;7.20;2.22;;;;;;;;;;6021325;23;20107;-81
2023/03/18 11:02:31;;;;;;;4.70;1.77;;;;;;;;;;6023627;23;20105;-83
2023/03/18 11:05:18;;;;;;;4.38;1.77;;;;;;;;;;6045989;23;20030;-83
2023/03/18 11:08:03;;;;;;;4.07;1.00;;;;;;;;;;6021671;23;20026;-82
2023/03/18 11:10:39;;;;;;;4.28;1.10;;;;;;;;;;6022068;23;20033;-83
2023/03/18 11:13:06;;;;;;;9.98;1.60;;;;;;;;;;6021866;23;20042;-82
2023/03/18 11:15:39;;;;;;;2.97;1.10;;;;;;;;;;6019990;23;20078;-79
2023/03/18 11:18:06;;;;;;;2.70;1.10;;;;;;;;;;6020465;23;20023;-82
2023/03/18 11:20:46;;;;;;;3.67;1.30;;;;;;;;;;6017472;23;20023;-82
2023/03/18 11:23:16;;;;;;;2.88;1.00;;;;;;;;;;6045229;23;20101;-81
2023/03/18 11:25:47;;;;;;;4.00;1.40;;;;;;;;;;6022317;23;20023;-81
2023/03/18 11:28:22;;;;;;;3.00;1.10;;;;;;;;;;6021416;23;20809;-82
2023/03/18 11:30:53;;;;;;;2.85;1.15;;;;;;;;;;6021715;23;20462;-82
2023/03/18 11:33:26;;;;;;;2.45;1.45;;;;;;;;;;6023434;23;20049;-80
2023/03/18 11:35:56;;;;;;;3.63;1.00;;;;;;;;;;6021285;23;20070;-81
2023/03/18 11:38:31;;;;;;;3.83;1.48;;;;;;;;;;6021370;23;20106;-81
2023/03/18 11:41:15;;;;;;;1.98;0.95;;;;;;;;;;6020955;23;20070;-81
2023/03/18 11:44:00;;;;;;;1.83;0.85;;;;;;;;;;6022617;23;20473;-81
2023/03/18 11:46:47;;;;;;;1.10;0.80;;;;;;;;;;6068131;23;20054;-83
2023/03/18 11:49:16;;;;;;;4.05;1.10;;;;;;;;;;6024421;23;20027;-81
2023/03/18 11:51:48;;;;;;;2.85;1.00;;;;;;;;;;6009843;23;20027;-79
2023/03/18 11:54:31;;;;;;;;;;;;;;;;;;6043843;23;20033;-79
2023/03/18 11:56:58;;;;;;;1.60;1.08;;;;;;;;;;6066652;23;19918;-80
2023/03/18 11:59:40;;;;;;;3.05;0.88;;;;;;;;;;6042342;23;20023;-79
2023/03/18 12:02:22;;;;;;;2.10;0.80;;;;;;;;;;6042951;23;20102;-79
2023/03/18 12:04:59;;;;;;;2.53;0.80;;;;;;;;;;6042947;23;20023;-80
2023/03/18 12:07:39;;;;;;;3.03;1.00;;;;;;;;;;6042921;23;20425;-79
2023/03/18 12:10:28;;;;;;;3.03;0.80;;;;;;;;;;6043116;23;20035;-79
2023/03/18 12:13:18;;;;;;;3.20;0.75;;;;;;;;;;6044604;23;20470;-80
2023/03/18 12:15:51;;;;;;;4.32;1.20;;;;;;;;;;6043733;23;20027;-80
2023/03/18 12:18:24;;;;;;;3.15;1.23;;;;;;;;;;6044217;23;20038;-80
2023/03/18 12:20:55;;;;;;;4.38;1.17;;;;;;;;;;6042615;23;20834;-80
2023/03/18 12:23:34;;;;;;;1.30;0.70;;;;;;;;;;6047279;23;20358;-79
2023/03/18 12:26:10;;;;;;;2.42;1.00;;;;;;;;;;6047916;23;20486;-80
2023/03/18 12:28:41;;;;;;;5.43;1.58;;;;;;;;;;6043206;23;20027;-79
2023/03/18 12:31:28;;;;;;;1.75;0.80;;;;;;;;;;6065879;23;20023;-80
2023/03/18 12:33:55;;;;;;;3.92;2.28;;;;;;;;;;6028789;23;20082;-79
2023/03/18 12:36:43;;;;;;;3.65;1.45;;;;;;;;;;6043357;23;20022;-80
2023/03/18 12:39:32;;;;;;;5.88;0.98;;;;;;;;;;6043413;23;20046;-79
2023/03/18 12:42:06;;;;;;;4.90;1.10;;;;;;;;;;6044324;23;20033;-80
2023/03/18 12:44:53;;;;;;;2.30;0.90;;;;;;;;;;6046798;23;20027;-81
2023/03/18 12:47:29;;;;;;;4.43;1.13;;;;;;;;;;6068936;23;20123;-81
2023/03/18 12:49:59;;;;;;;3.00;0.75;;;;;;;;;;6024422;23;20047;-82
2023/03/18 12:52:32;;;;;;;3.53;1.02;;;;;;;;;;6021325;23;20030;-77
2023/03/18 12:55:05;;;;;;;;;;;;;;;;;;6046825;23;20023;-80
2023/03/18 12:57:48;;;;;;;3.58;1.02;;;;;;;;;;6070697;23;20281;-79
2023/03/18 13:00:18;;;;;;;;;;;;;;;;;;6024196;23;20101;-80
2023/03/18 13:03:02;;;;;;;4.22;1.20;;;;;;;;;;6072600;23;19917;-79
2023/03/18 13:05:32;;;;;;;1.55;0.80;;;;;;;;;;6028535;23;20018;-78
2023/03/18 13:08:13;;;;;;;2.00;0.93;;;;;;;;;;6047773;23;20027;-80
2023/03/18 13:10:40;;;;;;;3.85;0.98;;;;;;;;;;6045908;23;20033;-79
2023/03/18 13:13:08;;;;;;;2.63;0.82;;;;;;;;;;6046995;23;20349;-79
2023/03/18 13:15:48;;;;;;;3.00;1.30;;;;;;;;;;6023674;23;20449;-79
2023/03/18 13:18:19;;;;;;;3.47;1.00;;;;;;;;;;6025323;23;20019;-79
2023/03/18 13:20:47;;;;;;;1.40;0.70;;;;;;;;;;6069211;23;20038;-79
2023/03/18 13:23:48;;;;;;;2.20;1.23;;;;;;;;;;6022730;23;20027;-79
2023/03/18 13:26:23;;;;;;;3.50;1.10;;;;;;;;;;6046106;23;20058;-78
2023/03/18 13:28:53;;;;;;;0.90;0.70;;;;;;;;;;6043349;23;20023;-77
2023/03/18 13:31:33;;;;;;;3.38;1.00;;;;;;;;;;6052579;23;20286;-79
2023/03/18 13:34:25;;;;;;;2.90;0.90;;;;;;;;;;6048495;23;20050;-79
2023/03/18 13:37:07;;;;;;;2.55;0.75;;;;;;;;;;6047251;23;20038;-80
2023/03/18 13:39:42;;;;;;;2.50;1.00;;;;;;;;;;6070344;23;20025;-80
2023/03/18 13:42:17;;;;;;;1.83;1.00;;;;;;;;;;6047293;23;20571;-79
2023/03/18 13:44:54;;;;;;;2.28;0.95;;;;;;;;;;6047937;23;20023;-78
2023/03/18 13:47:22;;;;;;;4.55;1.23;;;;;;;;;;6070029;23;20030;-78
2023/03/18 13:50:21;;;;;;;1.77;0.98;;;;;;;;;;6023541;23;20033;-79
2023/03/18 13:52:48;;;;;;;2.63;1.00;;;;;;;;;;6030036;23;20027;-79
2023/03/18 13:55:41;;;;;;;2.22;1.10;;;;;;;;;;6025314;23;20639;-79
2023/03/18 13:58:15;;;;;;;3.13;1.05;;;;;;;;;;6073983;23;20030;-77
2023/03/18 14:00:45;;;;;;;2.10;1.27;;;;;;;;;;6050442;23;20079;-78
2023/03/18 14:03:18;;;;;;;3.45;1.15;;;;;;;;;;6029842;23;20034;-78
2023/03/18 14:05:46;;;;;;;2.67;1.10;;;;;;;;;;6043596;23;20027;-79
2023/03/18 14:08:41;;;;;;;2.60;1.00;;;;;;;;;;6020209;23;20054;-79
2023/03/18 14:11:21;;;;;;;2.42;0.90;;;;;;;;;;6043826;23;20117;-79
2023/03/18 14:13:49;;;;;;;3.67;1.27;;;;;;;;;;6043914;23;20518;-78
2023/03/18 14:16:23;;;;;;;1.75;1.00;;;;;;;;;;6049787;23;20023;-81
2023/03/18 14:19:00;;;;;;;2.13;1.30;;;;;;;;;;6048586;23;20022;-78
2023/03/18 14:21:29;;;;;;;2.80;1.00;;;;;;;;;;6046584;23;20058;-80
2023/03/18 14:24:03;;;;;;;2.10;1.10;;;;;;;;;;6022657;23;20025;-79
2023/03/18 14:26:33;;;;;;;1.45;1.00;;;;;;;;;;6026849;23;20029;-80
2023/03/18 14:29:08;;;;;;;4.22;1.58;;;;;;;;;;6028255;23;20450;-79
2023/03/18 14:31:40;;;;;;;2.80;1.10;;;;;;;;;;6048775;23;20738;-79
2023/03/18 14:34:16;;;;;;;4.00;1.45;;;;;;;;;;6049128;23;20037;-80
2023/03/18 14:36:52;;;;;;;1.42;0.98;;;;;;;;;;6047064;23;20055;-79
2023/03/18 14:39:38;;;;;;;6.47;1.25;;;;;;;;;;6072648;23;20022;-79
2023/03/18 14:42:18;;;;;;;3.03;1.00;;;;;;;;;;6047892;23;20030;-79
2023/03/18 14:44:49;;;;;;;2.60;1.00;;;;;;;;;;6024651;23;20033;-80
2023/03/18 14:47:19;;;;;;;3.85;1.20;;;;;;;;;;6023493;23;20087;-79
2023/03/18 14:50:13;;;;;;;2.70;0.85;;;;;;;;;;6028743;23;20026;-78
2023/03/18 14:52:42;;;;;;;3.42;0.88;;;;;;;;;;6023100;23;20030;-80
2023/03/18 14:55:17;;;;;;;0.88;0.60;;;;;;;;;;6023010;23;20550;-79
2023/03/18 14:57:45;;;;;;;1.77;0.70;;;;;;;;;;6046470;23;20051;-80
2023/03/18 15:00:16;;;;;;;2.60;0.70;;;;;;;;;;6022263;23;20045;-80
2023/03/18 15:02:43;;;;;;;1.65;0.90;;;;;;;;;;6022224;23;20035;-81
2023/03/18 15:05:15;;;;;;;1.20;0.70;;;;;;;;;;6023610;23;20434;-81
2023/03/18 15:07:41;;;;;;;2.58;1.00;;;;;;;;;;6022466;23;20050;-80